Time;durP1;ratioP1;P1;durP2;ratioP2;P2;SDS_P1;SDS_P2;PMS_P1;PMS_P2;Temp;Humidity;BMP_temperature;BMP_pressure;BME280_temperature;BME280_humidity;BME280_pressure;Samples;Min_cycle;Max_cycle;Signal;HPM_P1;HPM_P2
2022/04/21 00:02:21;;;;;;;8.27;4.90;;;9.20;57.10;;;;;;4750052;30;20129;-80
2022/04/21 00:04:47;;;;;;;7.18;4.80;;;9.20;57.20;;;;;;4735880;30;20477;-82
2022/04/21 00:07:12;;;;;;;7.50;4.35;;;9.10;57.20;;;;;;4738587;30;20058;-82
2022/04/21 00:09:38;;;;;;;6.55;4.78;;;9.10;57.30;;;;;;4752842;30;20044;-82
2022/04/21 00:12:04;;;;;;;8.25;5.05;;;9.10;57.30;;;;;;4739510;30;20132;-81
2022/04/21 00:14:31;;;;;;;7.05;4.70;;;9.10;57.30;;;;;;4727509;30;20470;-82
2022/04/21 00:16:56;;;;;;;6.72;4.15;;;9.10;57.40;;;;;;4754458;30;20102;-81
2022/04/21 00:19:22;;;;;;;8.13;4.63;;;9.20;57.50;;;;;;4742059;30;20080;-81
2022/04/21 00:24:31;;;;;;;6.35;4.22;;;9.20;57.50;;;;;;4738177;30;20045;-83
2022/04/21 00:26:57;;;;;;;8.38;5.75;;;9.20;57.50;;;;;;4737903;30;20078;-81
2022/04/21 00:29:23;;;;;;;8.35;4.68;;;9.20;57.60;;;;;;4745038;30;20180;-82
2022/04/21 00:31:49;;;;;;;6.88;4.30;;;9.20;57.70;;;;;;4737087;30;20128;-82
2022/04/21 00:34:18;;;;;;;10.45;5.43;;;9.10;57.60;;;;;;4742061;30;20083;-81
2022/04/21 00:36:44;;;;;;;9.25;5.65;;;9.20;57.80;;;;;;4752429;30;20149;-82
2022/04/21 00:39:10;;;;;;;14.38;5.50;;;9.20;57.80;;;;;;4754059;30;20071;-82
2022/04/21 00:41:36;;;;;;;7.28;4.60;;;9.20;57.90;;;;;;4751863;30;20490;-83
2022/04/21 00:44:02;;;;;;;8.98;4.60;;;9.10;57.90;;;;;;4752186;30;20044;-82
2022/04/21 00:46:29;;;;;;;8.25;4.50;;;9.10;57.90;;;;;;4752513;30;20515;-82
2022/04/21 00:48:55;;;;;;;8.50;5.00;;;9.10;57.90;;;;;;4729424;30;20092;-82
2022/04/21 00:51:23;;;;;;;8.35;4.47;;;9.10;58.00;;;;;;4722242;30;20138;-83
2022/04/21 00:53:49;;;;;;;8.30;5.60;;;9.10;57.90;;;;;;4748107;30;20060;-81
2022/04/21 00:56:15;;;;;;;6.68;4.90;;;9.10;58.00;;;;;;4750890;30;20048;-83
2022/04/21 00:58:43;;;;;;;7.93;4.88;;;9.10;58.00;;;;;;4737407;30;20490;-83
2022/04/21 01:02:46;;;;;;;8.95;5.22;;;9.20;58.10;;;;;;4744092;30;20048;-83
2022/04/21 01:03:56;;;;;;;7.50;5.10;;;9.10;58.20;;;;;;4734440;30;20082;-82
2022/04/21 01:06:23;;;;;;;9.45;5.60;;;9.10;58.30;;;;;;4746390;30;20056;-82
2022/04/21 01:08:48;;;;;;;8.18;4.90;;;9.10;58.40;;;;;;4752491;30;20197;-82
2022/04/21 01:11:16;;;;;;;8.20;5.13;;;9.00;58.40;;;;;;4751336;30;20143;-82
2022/04/21 01:13:46;;;;;;;6.70;5.53;;;9.00;58.60;;;;;;4737692;30;20497;-82
2022/04/21 01:16:11;;;;;;;7.25;5.03;;;9.00;58.70;;;;;;4733600;30;20060;-82
2022/04/21 01:18:37;;;;;;;8.95;5.82;;;8.90;58.80;;;;;;4728570;30;20052;-82
2022/04/21 01:21:03;;;;;;;7.97;6.07;;;8.90;58.90;;;;;;4729941;30;20048;-82
2022/04/21 01:23:28;;;;;;;9.68;5.43;;;8.80;59.00;;;;;;4752724;30;20097;-82
2022/04/21 01:25:55;;;;;;;8.23;5.82;;;8.80;59.00;;;;;;4751577;30;20052;-82
2022/04/21 01:28:21;;;;;;;8.75;5.85;;;8.70;59.00;;;;;;4735506;30;20067;-83
2022/04/21 01:30:46;;;;;;;7.22;4.85;;;8.80;59.00;;;;;;4735067;30;20297;-82
2022/04/21 01:33:12;;;;;;;8.63;5.72;;;8.70;58.90;;;;;;4736095;30;20055;-83
2022/04/21 01:35:38;;;;;;;7.40;4.70;;;8.70;58.90;;;;;;4751306;30;21828;-83
2022/04/21 01:43:33;;;;;;;7.78;4.57;;;8.80;58.80;;;;;;4727239;30;20059;-83
2022/04/21 01:45:58;;;;;;;7.07;5.10;;;8.80;58.80;;;;;;4748418;30;20099;-82
2022/04/21 01:48:24;;;;;;;6.80;4.63;;;8.80;58.70;;;;;;4765126;30;20060;-82
2022/04/21 01:50:50;;;;;;;6.93;4.88;;;8.80;58.60;;;;;;4755663;30;20066;-82
2022/04/21 01:53:15;;;;;;;8.95;5.13;;;8.80;58.50;;;;;;4746968;30;20052;-82
2022/04/21 01:55:41;;;;;;;9.77;5.43;;;8.90;58.50;;;;;;4741886;30;20090;-82
2022/04/21 01:58:07;;;;;;;8.20;5.47;;;8.90;58.50;;;;;;4737969;30;20055;-82
2022/04/21 02:00:32;;;;;;;7.20;5.35;;;8.90;58.40;;;;;;4752801;30;20188;-82
2022/04/21 02:02:58;;;;;;;7.32;4.78;;;8.90;58.30;;;;;;4751856;30;20156;-82
2022/04/21 02:05:24;;;;;;;10.90;5.55;;;9.00;58.30;;;;;;4752243;30;20048;-82
2022/04/21 02:07:49;;;;;;;6.45;4.63;;;8.90;58.60;;;;;;4738801;30;20132;-82
2022/04/21 02:10:17;;;;;;;8.90;5.93;;;8.90;58.20;;;;;;4749574;30;20055;-82
2022/04/21 02:12:43;;;;;;;7.30;5.20;;;9.10;58.20;;;;;;4723300;30;20053;-82
2022/04/21 02:15:09;;;;;;;9.45;5.18;;;9.00;58.10;;;;;;4731087;30;20497;-81
2022/04/21 02:17:36;;;;;;;7.63;5.10;;;9.00;58.00;;;;;;4732590;30;20143;-81
2022/04/21 02:20:04;;;;;;;6.82;4.57;;;9.00;57.90;;;;;;4752624;30;20044;-82
2022/04/21 02:22:29;;;;;;;7.30;5.25;;;9.00;57.90;;;;;;4746938;30;20057;-82
2022/04/21 02:24:55;;;;;;;7.47;4.90;;;9.00;57.80;;;;;;4745531;30;20570;-80
2022/04/21 02:27:20;;;;;;;7.63;5.18;;;9.00;57.70;;;;;;4739359;30;20062;-82
2022/04/21 02:29:46;;;;;;;7.38;5.18;;;9.00;57.70;;;;;;4758903;30;20150;-82
2022/04/21 02:32:12;;;;;;;7.00;5.38;;;9.00;57.70;;;;;;4755977;30;20048;-81
2022/04/21 02:34:37;;;;;;;6.45;4.93;;;9.00;57.60;;;;;;4741814;30;20113;-81
2022/04/21 02:37:03;;;;;;;7.22;5.43;;;9.00;57.60;;;;;;4735079;30;20068;-82
2022/04/21 02:39:29;;;;;;;8.32;5.47;;;9.00;57.50;;;;;;4752536;30;20056;-82
2022/04/21 02:41:55;;;;;;;7.53;5.45;;;8.90;57.90;;;;;;4725477;30;20052;-82
2022/04/21 02:44:20;;;;;;;8.40;5.45;;;8.90;57.60;;;;;;4756045;30;20511;-82
2022/04/21 02:46:46;;;;;;;8.25;5.93;;;8.80;57.60;;;;;;4738024;30;20052;-81
2022/04/21 02:49:14;;;;;;;9.70;6.80;;;8.80;57.80;;;;;;4747569;30;20490;-81
2022/04/21 02:51:40;;;;;;;8.45;5.32;;;8.80;58.00;;;;;;4753163;30;20048;-81
2022/04/21 02:59:35;;;;;;;10.32;6.68;;;8.60;58.30;;;;;;4755703;30;20052;-82
2022/04/21 03:02:00;;;;;;;8.80;6.10;;;8.60;58.50;;;;;;4751881;30;20045;-82
2022/04/21 03:04:26;;;;;;;9.75;6.65;;;8.60;58.80;;;;;;4738706;30;20045;-83
2022/04/21 03:06:52;;;;;;;12.52;7.35;;;8.50;58.90;;;;;;4739671;30;20059;-82
2022/04/21 03:09:17;;;;;;;11.90;8.20;;;8.40;59.20;;;;;;4754585;30;20113;-83
2022/04/21 03:11:43;;;;;;;10.85;7.80;;;8.40;59.40;;;;;;4738509;30;20386;-81
2022/04/21 03:14:09;;;;;;;11.32;7.53;;;8.30;59.50;;;;;;4753522;30;20082;-81
2022/04/21 03:16:34;;;;;;;10.10;7.25;;;8.20;59.70;;;;;;4755548;30;20401;-82
2022/04/21 03:19:00;;;;;;;8.75;6.82;;;8.20;59.80;;;;;;4751112;30;20546;-82
2022/04/21 03:24:19;;;;;;;9.73;7.47;;;8.10;60.00;;;;;;4747227;30;20131;-82
2022/04/21 03:26:46;;;;;;;10.65;7.68;;;8.10;60.20;;;;;;4736280;30;20135;-82
2022/04/21 03:29:11;;;;;;;12.40;9.00;;;8.00;60.30;;;;;;4734865;30;20548;-82
2022/04/21 03:31:37;;;;;;;10.98;8.30;;;7.90;60.50;;;;;;4755107;30;20174;-82
2022/04/21 03:34:05;;;;;;;11.90;8.90;;;7.90;60.80;;;;;;4752629;30;20089;-82
2022/04/21 03:36:31;;;;;;;11.50;8.48;;;7.70;61.00;;;;;;4734702;30;20071;-82
2022/04/21 03:38:57;;;;;;;13.00;9.50;;;7.70;61.20;;;;;;4752094;30;20408;-82
2022/04/21 03:41:23;;;;;;;13.15;8.77;;;7.60;61.40;;;;;;4750551;30;20040;-82
2022/04/21 03:43:48;;;;;;;10.27;8.32;;;7.50;61.60;;;;;;4735688;30;20052;-82
2022/04/21 03:46:14;;;;;;;16.30;8.88;;;7.40;62.10;;;;;;4749954;30;20058;-82
2022/04/21 03:48:40;;;;;;;13.85;9.10;;;7.30;62.40;;;;;;4732161;30;20409;-82
2022/04/21 03:51:05;;;;;;;12.90;8.95;;;7.20;63.00;;;;;;4745820;30;20397;-82
2022/04/21 03:53:31;;;;;;;12.60;8.90;;;7.10;63.30;;;;;;4751283;30;20045;-85
2022/04/21 03:55:57;;;;;;;12.40;8.77;;;7.00;63.70;;;;;;4750953;30;20044;-83
2022/04/21 03:58:22;;;;;;;11.85;8.18;;;7.00;64.30;;;;;;4752062;30;20051;-83
2022/04/21 04:00:48;;;;;;;15.15;9.70;;;6.90;64.20;;;;;;4733709;30;20044;-84
2022/04/21 04:03:14;;;;;;;17.27;10.15;;;6.80;64.50;;;;;;4750332;30;20151;-82
2022/04/21 04:05:40;;;;;;;14.05;9.45;;;6.80;64.70;;;;;;4737795;30;20110;-82
2022/04/21 04:10:53;;;;;;;15.10;9.30;;;6.70;65.00;;;;;;4754591;30;20096;-82
2022/04/21 04:13:20;;;;;;;12.65;9.38;;;6.60;64.80;;;;;;4748643;30;20493;-82
2022/04/21 04:15:48;;;;;;;14.02;8.68;;;6.70;65.20;;;;;;4737583;30;20402;-82
2022/04/21 04:18:15;;;;;;;13.18;9.27;;;6.70;65.10;;;;;;4713191;30;20084;-81
2022/04/21 04:20:41;;;;;;;14.25;9.35;;;6.60;65.20;;;;;;4721605;30;20052;-81
2022/04/21 04:23:07;;;;;;;15.48;9.82;;;6.70;65.30;;;;;;4737684;30;20053;-81
2022/04/21 04:25:32;;;;;;;12.38;9.98;;;6.70;65.50;;;;;;4737695;30;20079;-81
2022/04/21 04:27:58;;;;;;;14.50;9.40;;;6.70;65.40;;;;;;4738930;30;20044;-80
2022/04/21 04:30:25;;;;;;;13.27;8.82;;;6.60;65.50;;;;;;4750988;30;20525;-81
2022/04/21 04:32:50;;;;;;;14.40;8.82;;;6.60;65.50;;;;;;4754202;30;20098;-82
2022/04/21 04:35:16;;;;;;;9.65;7.82;;;6.70;65.60;;;;;;4737062;30;20432;-81
2022/04/21 04:37:41;;;;;;;10.65;8.10;;;6.70;65.60;;;;;;4755334;30;20060;-82
2022/04/21 04:40:08;;;;;;;11.70;8.35;;;6.70;65.50;;;;;;4745720;30;20132;-81
2022/04/21 04:42:34;;;;;;;12.45;9.00;;;6.80;65.50;;;;;;4736284;30;20387;-82
2022/04/21 04:47:43;;;;;;;11.48;8.20;;;6.80;65.40;;;;;;4751161;30;20067;-81
2022/04/21 04:50:10;;;;;;;10.70;7.00;;;7.20;65.50;;;;;;4751987;30;20051;-81
2022/04/21 04:52:37;;;;;;;10.18;7.07;;;6.90;65.10;;;;;;4753741;30;20485;-81
2022/04/21 04:55:03;;;;;;;10.23;7.68;;;6.90;65.10;;;;;;4740314;30;20045;-81
2022/04/21 04:57:28;;;;;;;11.98;8.20;;;6.90;64.90;;;;;;4753142;30;20182;-81
2022/04/21 04:59:54;;;;;;;12.85;8.70;;;7.00;65.20;;;;;;4746948;30;20123;-81
2022/04/21 05:02:20;;;;;;;14.07;8.48;;;7.10;65.60;;;;;;4740911;30;20119;-79
2022/04/21 05:04:49;;;;;;;11.98;8.75;;;7.20;65.80;;;;;;4736992;30;20400;-80
2022/04/21 05:07:14;;;;;;;13.23;9.23;;;7.30;65.80;;;;;;4737288;30;20052;-81
2022/04/21 05:09:40;;;;;;;10.50;7.85;;;7.50;65.70;;;;;;4741134;30;20064;-81
2022/04/21 05:12:07;;;;;;;10.65;7.80;;;7.60;65.30;;;;;;4729838;30;20071;-81
2022/04/21 05:14:33;;;;;;;10.55;7.78;;;7.80;64.90;;;;;;4720817;30;20515;-81
2022/04/21 05:17:00;;;;;;;9.75;7.63;;;8.00;64.30;;;;;;4736567;30;20057;-79
2022/04/21 05:19:26;;;;;;;10.27;7.45;;;8.20;63.80;;;;;;4745114;30;20489;-80
2022/04/21 05:21:52;;;;;;;12.35;8.73;;;8.30;63.20;;;;;;4751526;30;20090;-81
2022/04/21 05:24:19;;;;;;;11.10;8.30;;;8.40;62.90;;;;;;4753305;30;20048;-81
2022/04/21 05:26:45;;;;;;;13.38;8.85;;;8.50;62.70;;;;;;4752591;30;20098;-81
2022/04/21 05:31:58;;;;;;;12.02;8.77;;;8.80;62.50;;;;;;4737602;30;20044;-81
2022/04/21 05:34:25;;;;;;;12.63;9.32;;;8.90;62.40;;;;;;4752833;30;20044;-81
2022/04/21 05:36:51;;;;;;;13.02;8.63;;;9.10;62.40;;;;;;4747373;30;20063;-81
2022/04/21 05:39:17;;;;;;;11.00;8.38;;;9.20;62.20;;;;;;4735816;30;20099;-81
2022/04/21 05:41:44;;;;;;;11.85;8.57;;;9.40;61.90;;;;;;4721462;30;20070;-79
2022/04/21 05:44:10;;;;;;;12.77;8.63;;;9.40;61.60;;;;;;4749293;30;20082;-80
2022/04/21 05:46:36;;;;;;;11.23;8.52;;;9.50;61.30;;;;;;4730962;30;20060;-81
2022/04/21 05:49:02;;;;;;;10.80;8.27;;;9.60;61.20;;;;;;4720583;30;20045;-81
2022/04/21 05:51:28;;;;;;;11.48;8.23;;;9.70;61.20;;;;;;4747358;30;20051;-80
2022/04/21 05:53:57;;;;;;;13.10;8.93;;;9.80;61.20;;;;;;4752349;30;20379;-80
2022/04/21 05:56:23;;;;;;;9.80;7.60;;;10.00;61.10;;;;;;4748748;30;20048;-81
2022/04/21 05:58:49;;;;;;;10.55;8.38;;;10.20;60.80;;;;;;4747936;30;20048;-80
2022/04/21 06:01:15;;;;;;;8.10;7.00;;;10.40;60.40;;;;;;4736126;30;20056;-80
2022/04/21 06:03:41;;;;;;;11.32;7.75;;;10.60;60.20;;;;;;4739380;30;20590;-79
2022/04/21 06:06:09;;;;;;;9.85;7.68;;;10.90;59.80;;;;;;4748282;30;20068;-81
2022/04/21 06:08:35;;;;;;;10.18;7.70;;;11.10;59.50;;;;;;4726808;30;20102;-80
2022/04/21 06:11:02;;;;;;;10.13;8.75;;;11.40;59.10;;;;;;4734681;30;20152;-81
2022/04/21 06:13:28;;;;;;;10.00;7.25;;;11.50;58.50;;;;;;4750081;30;20056;-81
2022/04/21 06:15:54;;;;;;;11.27;8.27;;;11.70;58.00;;;;;;4750205;30;20041;-81
2022/04/21 06:18:20;;;;;;;10.88;7.95;;;11.80;57.80;;;;;;4722681;30;20065;-81
2022/04/21 06:20:47;;;;;;;11.57;8.20;;;11.80;57.40;;;;;;4740234;30;20052;-81
2022/04/21 06:23:13;;;;;;;12.25;8.05;;;11.90;57.10;;;;;;4723256;30;20490;-82
2022/04/21 06:25:39;;;;;;;9.20;7.05;;;11.90;57.00;;;;;;4738995;30;20448;-84
2022/04/21 06:28:05;;;;;;;9.55;6.70;;;12.00;57.20;;;;;;4738362;30;20578;-81
2022/04/21 06:30:31;;;;;;;11.68;7.47;;;12.20;56.90;;;;;;4756197;30;20087;-81
2022/04/21 06:32:59;;;;;;;9.95;6.78;;;12.30;56.50;;;;;;4753700;30;20169;-82
2022/04/21 06:35:26;;;;;;;7.80;6.47;;;12.40;55.80;;;;;;4740178;30;20060;-82
2022/04/21 06:37:53;;;;;;;10.13;5.95;;;12.50;55.70;;;;;;4748961;30;20064;-82
2022/04/21 06:40:18;;;;;;;9.27;6.47;;;12.60;54.90;;;;;;4741023;30;20056;-82
2022/04/21 06:42:44;;;;;;;9.15;5.78;;;12.60;54.90;;;;;;4738085;30;20512;-81
2022/04/21 06:48:04;;;;;;;8.50;5.88;;;12.70;54.30;;;;;;4745026;30;20048;-83
2022/04/21 06:50:34;;;;;;;8.07;5.80;;;12.80;53.90;;;;;;4739927;30;20052;-82
2022/04/21 06:53:01;;;;;;;9.13;5.60;;;12.90;53.80;;;;;;4753859;30;20067;-82
2022/04/21 06:55:27;;;;;;;6.20;4.80;;;13.00;53.40;;;;;;4740202;30;20052;-82
2022/04/21 06:57:53;;;;;;;7.13;5.55;;;13.10;53.10;;;;;;4726492;30;20060;-83
2022/04/21 07:00:18;;;;;;;8.13;5.00;;;13.10;52.20;;;;;;4738594;30;20056;-81
2022/04/21 07:02:45;;;;;;;9.40;6.00;;;13.10;52.30;;;;;;4724989;30;20114;-82
2022/04/21 07:05:14;;;;;;;7.10;4.50;;;13.10;52.10;;;;;;4755763;30;20048;-81
2022/04/21 07:07:40;;;;;;;8.00;4.65;;;13.20;51.80;;;;;;4755105;30;20056;-82
2022/04/21 07:10:07;;;;;;;7.03;4.50;;;13.20;51.80;;;;;;4754996;30;20397;-83
2022/04/21 07:12:34;;;;;;;7.55;5.25;;;13.30;52.50;;;;;;4731473;30;20390;-81
2022/04/21 07:15:02;;;;;;;7.38;4.72;;;13.40;51.90;;;;;;4738033;30;20059;-82
2022/04/21 07:17:27;;;;;;;7.53;4.55;;;13.50;51.70;;;;;;4738257;30;20052;-83
2022/04/21 07:19:53;;;;;;;7.28;4.72;;;13.60;50.70;;;;;;4741858;30;20040;-83
2022/04/21 07:22:25;;;;;;;6.80;3.70;;;13.60;49.80;;;;;;4749842;30;20053;-84
2022/04/21 07:24:55;;;;;;;5.55;3.80;;;13.60;49.70;;;;;;4737824;30;20052;-83
2022/04/21 07:27:21;;;;;;;5.65;3.72;;;13.60;49.20;;;;;;4743339;30;20059;-83
2022/04/21 07:29:47;;;;;;;5.43;3.83;;;13.60;49.40;;;;;;4739720;30;20494;-82
2022/04/21 07:32:13;;;;;;;5.00;3.38;;;13.60;49.30;;;;;;4738457;30;20048;-82
2022/04/21 07:34:39;;;;;;;6.78;3.67;;;13.60;49.10;;;;;;4738899;30;20085;-83
2022/04/21 07:37:05;;;;;;;6.53;3.58;;;13.70;48.50;;;;;;4752072;30;20068;-82
2022/04/21 07:39:34;;;;;;;5.13;3.00;;;13.60;48.70;;;;;;4721678;30;20482;-83
2022/04/21 07:42:00;;;;;;;4.88;3.22;;;13.70;48.30;;;;;;4745109;30;20041;-84
2022/04/21 07:44:28;;;;;;;7.03;2.92;;;13.70;48.20;;;;;;4737524;30;20409;-82
2022/04/21 07:46:54;;;;;;;6.30;3.08;;;13.60;47.60;;;;;;4737731;30;20053;-82
2022/04/21 07:54:49;;;;;;;5.18;2.50;;;13.70;45.90;;;;;;4737391;30;19926;-82
2022/04/21 07:57:14;;;;;;;4.68;2.88;;;13.70;46.80;;;;;;4723279;30;20523;-83
2022/04/21 07:59:40;;;;;;;4.07;2.38;;;13.80;46.80;;;;;;4738713;30;20063;-83
2022/04/21 08:02:08;;;;;;;3.30;2.20;;;13.80;45.40;;;;;;4738541;30;20083;-82
2022/04/21 08:04:40;;;;;;;4.57;2.90;;;13.90;45.80;;;;;;4746495;30;20056;-82
2022/04/21 08:07:06;;;;;;;4.63;2.65;;;13.90;46.20;;;;;;4721346;30;20052;-82
2022/04/21 08:09:31;;;;;;;3.38;1.98;;;14.00;46.20;;;;;;4738128;30;20052;-82
2022/04/21 08:11:57;;;;;;;4.47;2.28;;;14.10;45.60;;;;;;4754621;30;20060;-82
2022/04/21 08:14:24;;;;;;;5.93;2.40;;;14.20;45.70;;;;;;4752752;30;20086;-83
2022/04/21 08:16:53;;;;;;;4.70;2.10;;;14.30;45.50;;;;;;4754671;30;20102;-82
2022/04/21 08:19:19;;;;;;;5.53;2.50;;;14.40;45.90;;;;;;4754014;30;20379;-83
2022/04/21 08:21:45;;;;;;;3.92;2.00;;;14.50;46.10;;;;;;4743952;30;20406;-83
2022/04/21 08:32:43;;;;;;;3.95;2.28;;;14.90;43.40;;;;;;4738061;30;20536;-83
2022/04/21 08:35:10;;;;;;;4.43;2.17;;;14.90;43.30;;;;;;4736876;30;20048;-83
2022/04/21 08:37:36;;;;;;;4.20;2.47;;;15.00;43.40;;;;;;4737906;30;20068;-84
2022/04/21 08:40:03;;;;;;;2.97;2.30;;;15.00;43.20;;;;;;4737800;30;20093;-84
2022/04/21 08:42:39;;;;;;;9.68;2.92;;;15.00;43.40;;;;;;4753916;30;20052;-84
2022/04/21 08:45:06;;;;;;;5.30;2.33;;;15.00;43.60;;;;;;4752524;30;20048;-83
2022/04/21 08:47:32;;;;;;;4.85;2.70;;;15.20;44.10;;;;;;4753719;30;20413;-82
2022/04/21 08:50:06;;;;;;;6.35;2.67;;;15.20;43.70;;;;;;4753314;30;20059;-82
2022/04/21 08:52:34;;;;;;;5.90;2.88;;;15.30;44.70;;;;;;4737982;30;20129;-82
2022/04/21 08:55:02;;;;;;;7.65;2.90;;;15.40;44.70;;;;;;4724019;30;20182;-83
2022/04/21 08:57:30;;;;;;;3.65;2.50;;;15.50;43.90;;;;;;4727846;30;20060;-83
2022/04/21 08:59:56;;;;;;;4.40;2.72;;;15.50;44.40;;;;;;4736594;30;20060;-83
2022/04/21 09:02:32;;;;;;;4.10;2.90;;;15.50;44.50;;;;;;4736077;30;20053;-82
2022/04/21 09:04:58;;;;;;;5.05;2.63;;;15.60;44.40;;;;;;4747911;30;20054;-82
2022/04/21 09:07:24;;;;;;;7.20;3.33;;;15.70;45.20;;;;;;4752850;30;20139;-84
2022/04/21 09:10:01;;;;;;;5.43;2.50;;;15.80;45.00;;;;;;4752980;30;20044;-83
2022/04/21 09:12:27;;;;;;;4.72;2.72;;;15.90;45.00;;;;;;4755303;30;20131;-82
2022/04/21 09:14:53;;;;;;;5.00;2.65;;;16.00;46.00;;;;;;4754934;30;20040;-83
2022/04/21 09:17:18;;;;;;;5.70;2.58;;;16.10;45.00;;;;;;4741003;30;20063;-82
2022/04/21 09:20:00;;;;;;;4.78;2.50;;;16.30;44.30;;;;;;4740930;30;20056;-83
2022/04/21 09:22:31;;;;;;;4.47;2.47;;;16.30;43.60;;;;;;4761486;30;20074;-81
2022/04/21 09:24:58;;;;;;;3.88;2.55;;;16.40;43.80;;;;;;4746185;30;20052;-83
2022/04/21 09:27:23;;;;;;;5.03;2.45;;;16.50;43.80;;;;;;4760979;30;20094;-83
2022/04/21 09:29:50;;;;;;;5.40;2.63;;;16.50;43.20;;;;;;4739349;30;20048;-82
2022/04/21 09:32:18;;;;;;;5.72;3.05;;;16.70;43.30;;;;;;4738813;30;20052;-84
2022/04/21 09:34:49;;;;;;;4.10;2.40;;;16.60;43.50;;;;;;4737482;30;20501;-82
2022/04/21 09:37:19;;;;;;;5.72;2.45;;;16.70;43.20;;;;;;4735603;30;20061;-83
2022/04/21 09:39:52;;;;;;;5.13;2.50;;;16.70;43.40;;;;;;4727533;30;20056;-82
2022/04/21 09:42:26;;;;;;;4.30;2.85;;;16.80;43.60;;;;;;4725143;30;20146;-81
2022/04/21 09:47:36;;;;;;;3.92;2.55;;;16.90;42.30;;;;;;4736425;30;20045;-83
2022/04/21 09:50:12;;;;;;;4.95;2.55;;;16.80;42.00;;;;;;4732208;30;20486;-84
2022/04/21 09:52:38;;;;;;;6.03;3.38;;;16.80;42.70;;;;;;4752956;30;20190;-84
2022/04/21 09:55:34;;;;;;;8.68;2.38;;;16.80;41.90;;;;;;4745337;30;20055;-81
2022/04/21 09:58:09;;;;;;;5.15;2.90;;;16.80;42.50;;;;;;4674298;30;20065;-82
2022/04/21 10:00:37;;;;;;;5.30;2.92;;;16.90;41.80;;;;;;4698538;30;20105;-83
2022/04/21 10:03:04;;;;;;;6.53;2.67;;;16.90;41.20;;;;;;4684214;30;20120;-83
2022/04/21 10:05:32;;;;;;;5.20;2.50;;;16.80;41.50;;;;;;4683731;30;20128;-83
2022/04/21 10:08:00;;;;;;;7.95;2.70;;;16.80;41.00;;;;;;4683746;30;20169;-81
2022/04/21 10:10:29;;;;;;;5.30;2.92;;;16.80;42.10;;;;;;4683852;30;20061;-82
2022/04/21 10:12:55;;;;;;;4.78;2.53;;;16.80;41.20;;;;;;4698508;30;20064;-83
2022/04/21 10:15:21;;;;;;;5.15;2.60;;;16.80;41.60;;;;;;4683554;30;20408;-83
2022/04/21 10:17:47;;;;;;;6.43;2.30;;;16.90;40.90;;;;;;4698485;30;20069;-83
2022/04/21 10:20:13;;;;;;;5.15;2.88;;;16.90;40.50;;;;;;4683834;30;20414;-82
2022/04/21 10:22:39;;;;;;;4.88;2.72;;;16.90;39.30;;;;;;4698702;30;20574;-83
2022/04/21 10:25:06;;;;;;;4.13;2.72;;;16.80;40.30;;;;;;4698097;30;20049;-83
2022/04/21 10:27:38;;;;;;;4.50;2.85;;;16.90;40.70;;;;;;4698325;30;20065;-82
2022/04/21 10:30:28;;;;;;;5.22;2.70;;;17.00;42.00;;;;;;4697941;30;20058;-82
2022/04/21 10:32:59;;;;;;;3.20;2.08;;;17.10;41.60;;;;;;4632959;30;20126;-82
2022/04/21 10:35:26;;;;;;;4.88;1.90;;;17.10;41.00;;;;;;4668152;30;20050;-84
2022/04/21 10:38:18;;;;;;;3.33;2.00;;;17.30;40.30;;;;;;4681009;30;20066;-84
2022/04/21 10:41:03;;;;;;;5.40;2.40;;;17.30;37.60;;;;;;4663635;30;20116;-84
2022/04/21 10:43:50;;;;;;;5.40;2.55;;;17.30;39.30;;;;;;4663539;30;20495;-83
2022/04/21 10:46:26;;;;;;;3.75;2.20;;;17.30;39.40;;;;;;4663531;30;20532;-84
2022/04/21 10:48:52;;;;;;;3.53;1.92;;;17.20;38.80;;;;;;4652304;30;20059;-84
2022/04/21 10:57:16;;;;;;;4.93;2.50;;;17.20;39.00;;;;;;4666180;30;20073;-83
2022/04/21 11:00:09;;;;;;;5.65;2.22;;;17.30;39.60;;;;;;4652865;30;20070;-82
2022/04/21 11:02:41;;;;;;;3.42;2.35;;;17.30;39.90;;;;;;4661292;30;20054;-83
2022/04/21 11:05:22;;;;;;;3.72;2.30;;;17.30;39.10;;;;;;4666310;30;20524;-82
2022/04/21 11:07:52;;;;;;;3.42;2.30;;;17.40;40.10;;;;;;4649839;30;20059;-82
2022/04/21 11:10:26;;;;;;;3.00;2.08;;;17.40;39.70;;;;;;4671871;30;20065;-84
2022/04/21 11:12:52;;;;;;;4.13;2.30;;;17.50;39.90;;;;;;4691939;30;20470;-83
2022/04/21 11:15:36;;;;;;;4.28;2.03;;;17.50;39.20;;;;;;4701179;30;20194;-82
2022/04/21 11:18:10;;;;;;;5.50;2.53;;;17.70;40.70;;;;;;4707009;30;20073;-82
2022/04/21 11:20:40;;;;;;;4.20;2.15;;;17.70;39.40;;;;;;4721418;30;20060;-82
2022/04/21 11:23:10;;;;;;;5.93;2.30;;;17.80;38.10;;;;;;4737459;30;20410;-82
2022/04/21 11:25:36;;;;;;;5.03;2.00;;;17.90;38.80;;;;;;4735326;30;20209;-84
2022/04/21 11:28:02;;;;;;;5.18;2.25;;;17.80;38.50;;;;;;4720389;30;20124;-83
2022/04/21 11:30:30;;;;;;;3.17;2.03;;;17.90;38.20;;;;;;4720101;30;20056;-83
2022/04/21 11:32:56;;;;;;;4.80;2.28;;;17.90;38.50;;;;;;4735142;30;20067;-84
2022/04/21 11:35:24;;;;;;;2.80;1.83;;;17.90;37.20;;;;;;4737020;30;20044;-83
2022/04/21 11:37:59;;;;;;;5.68;1.85;;;17.90;37.00;;;;;;4735447;30;20443;-84
2022/04/21 11:40:33;;;;;;;3.20;1.73;;;17.80;37.60;;;;;;4737611;30;20055;-83
2022/04/21 11:43:02;;;;;;;4.67;2.17;;;17.80;36.30;;;;;;4735900;30;20056;-82
2022/04/21 11:45:38;;;;;;;5.38;2.22;;;17.90;37.80;;;;;;4737377;30;20306;-82
2022/04/21 11:48:14;;;;;;;3.95;2.42;;;17.90;38.70;;;;;;4737608;30;20418;-84
2022/04/21 11:50:45;;;;;;;3.03;1.90;;;17.90;38.00;;;;;;4740353;30;20048;-83
2022/04/21 11:53:19;;;;;;;5.28;2.03;;;18.00;36.50;;;;;;4741961;30;20076;-83
2022/04/21 11:55:45;;;;;;;2.90;2.35;;;18.00;37.80;;;;;;4741011;30;20043;-83
2022/04/21 11:58:12;;;;;;;2.97;2.30;;;18.00;37.50;;;;;;4720123;30;20049;-84
2022/04/21 12:08:50;;;;;;;;;;;18.00;37.10;;;;;;4720279;30;20070;-82
2022/04/21 12:11:21;;;;;;;3.95;2.45;;;18.00;36.80;;;;;;4719583;30;19926;-82
2022/04/21 12:13:48;;;;;;;6.55;2.90;;;18.00;37.70;;;;;;4719647;30;20083;-83
2022/04/21 12:16:34;;;;;;;4.35;2.65;;;18.00;38.30;;;;;;4718355;30;20057;-82
2022/04/21 12:19:11;;;;;;;3.92;2.35;;;18.00;38.10;;;;;;4731221;30;20052;-81
2022/04/21 12:21:37;;;;;;;5.75;2.70;;;18.00;37.70;;;;;;4734395;30;20056;-81
2022/04/21 12:24:14;;;;;;;5.32;2.35;;;18.00;38.00;;;;;;4735532;30;20479;-82
2022/04/21 12:26:47;;;;;;;4.55;2.50;;;18.00;38.10;;;;;;4734352;30;20132;-81
2022/04/21 12:29:13;;;;;;;3.38;2.47;;;18.00;39.10;;;;;;4734633;30;20098;-82
2022/04/21 12:31:52;;;;;;;3.88;2.50;;;18.00;38.60;;;;;;4735867;30;20082;-81
2022/04/21 12:34:29;;;;;;;5.35;3.08;;;18.00;38.00;;;;;;4717717;30;20063;-83
2022/04/21 12:37:01;;;;;;;6.45;2.28;;;18.00;38.10;;;;;;4718276;30;20065;-84
2022/04/21 12:39:29;;;;;;;3.63;2.60;;;18.00;38.50;;;;;;4747578;30;20064;-82
2022/04/21 12:41:55;;;;;;;4.00;3.00;;;18.00;38.30;;;;;;4730906;30;20048;-82
2022/04/21 12:44:24;;;;;;;6.95;2.67;;;17.90;38.00;;;;;;4736551;30;20502;-82
2022/04/21 12:47:20;;;;;;;5.75;3.05;;;17.90;37.60;;;;;;4720767;30;20074;-82
2022/04/21 12:50:08;;;;;;;5.40;3.00;;;17.90;39.30;;;;;;4691842;30;20620;-82
2022/04/21 12:52:35;;;;;;;4.47;3.25;;;17.90;38.40;;;;;;4672683;30;20049;-82
2022/04/21 12:55:05;;;;;;;4.78;2.90;;;17.90;38.90;;;;;;4716699;30;20049;-83
2022/04/21 12:57:31;;;;;;;4.60;3.17;;;17.80;40.50;;;;;;4713102;30;20056;-82
2022/04/21 12:59:57;;;;;;;6.00;3.60;;;17.80;40.20;;;;;;4698746;30;20566;-82
2022/04/21 13:02:23;;;;;;;5.47;3.05;;;17.90;40.50;;;;;;4699909;30;20453;-82
2022/04/21 13:04:49;;;;;;;6.07;3.38;;;17.90;39.10;;;;;;4684565;30;20092;-79
2022/04/21 13:07:15;;;;;;;5.10;3.20;;;17.90;39.30;;;;;;4684774;30;20148;-80
2022/04/21 13:09:41;;;;;;;4.85;2.95;;;17.90;39.10;;;;;;4671783;30;20053;-80
2022/04/21 13:12:07;;;;;;;5.05;2.60;;;18.00;38.80;;;;;;4693160;30;20111;-79
2022/04/21 13:14:33;;;;;;;4.13;2.80;;;18.00;39.30;;;;;;4703766;30;20053;-80
2022/04/21 13:16:59;;;;;;;3.65;2.60;;;18.10;39.30;;;;;;4695121;30;20415;-80
2022/04/21 13:19:25;;;;;;;3.95;3.30;;;18.10;39.30;;;;;;4696609;30;20070;-78
2022/04/21 13:21:55;;;;;;;7.32;3.38;;;18.20;39.30;;;;;;4693438;30;20053;-80
2022/04/21 13:29:33;;;;;;;5.55;3.40;;;18.20;40.00;;;;;;4881827;24;20075;-79
2022/04/21 13:34:44;;;;;;;4.93;3.10;;;18.30;38.70;;;;;;4777509;30;20108;-80
2022/04/21 13:37:09;;;;;;;5.90;3.63;;;18.30;39.00;;;;;;4782846;30;20047;-81
2022/04/21 13:39:36;;;;;;;6.35;4.00;;;18.30;39.60;;;;;;4778514;30;20046;-79
2022/04/21 13:42:05;;;;;;;7.03;3.40;;;18.30;39.90;;;;;;4788657;30;20122;-80
2022/04/21 13:44:31;;;;;;;5.10;3.17;;;18.20;40.20;;;;;;4775237;30;20511;-80
2022/04/21 13:46:57;;;;;;;5.88;3.30;;;18.20;40.40;;;;;;4779077;30;20032;-80
2022/04/21 13:49:23;;;;;;;7.88;4.13;;;18.20;41.20;;;;;;4779094;30;20082;-81
2022/04/21 13:51:49;;;;;;;6.28;3.75;;;18.30;41.30;;;;;;4782741;30;20058;-81
2022/04/21 13:54:15;;;;;;;6.85;3.33;;;18.30;40.80;;;;;;4786932;30;20043;-80
2022/04/21 13:56:42;;;;;;;8.20;3.67;;;18.30;41.30;;;;;;4777656;29;20051;-80
2022/04/21 13:59:10;;;;;;;7.53;3.72;;;18.30;40.60;;;;;;4778984;29;20042;-79